sensor_id;sensor_type;location;lat;lon;timestamp;temperature;humidity
68128;SHT30;54931;52.098;21.006;2023-09-30T00:02:08;15.62;74.05
68128;SHT30;54931;52.098;21.006;2023-09-30T00:04:38;15.63;74.00
68128;SHT30;54931;52.098;21.006;2023-09-30T00:07:07;15.65;74.01
68128;SHT30;54931;52.098;21.006;2023-09-30T00:09:35;15.66;73.97
68128;SHT30;54931;52.098;21.006;2023-09-30T00:12:03;15.66;73.96
68128;SHT30;54931;52.098;21.006;2023-09-30T00:14:32;15.67;73.92
68128;SHT30;54931;52.098;21.006;2023-09-30T00:16:59;15.70;73.84
68128;SHT30;54931;52.098;21.006;2023-09-30T00:19:27;15.72;73.79
68128;SHT30;54931;52.098;21.006;2023-09-30T00:21:55;15.73;73.77
68128;SHT30;54931;52.098;21.006;2023-09-30T00:24:22;15.73;73.70
68128;SHT30;54931;52.098;21.006;2023-09-30T00:26:50;15.73;73.66
68128;SHT30;54931;52.098;21.006;2023-09-30T00:29:17;15.77;73.58
68128;SHT30;54931;52.098;21.006;2023-09-30T00:31:45;15.79;73.51
68128;SHT30;54931;52.098;21.006;2023-09-30T00:34:12;15.80;73.49
68128;SHT30;54931;52.098;21.006;2023-09-30T00:36:40;15.83;73.41
68128;SHT30;54931;52.098;21.006;2023-09-30T00:39:07;15.85;73.30
68128;SHT30;54931;52.098;21.006;2023-09-30T00:41:39;15.87;73.24
68128;SHT30;54931;52.098;21.006;2023-09-30T00:44:07;15.88;73.20
68128;SHT30;54931;52.098;21.006;2023-09-30T00:46:36;15.90;73.14
68128;SHT30;54931;52.098;21.006;2023-09-30T00:49:08;15.92;73.08
68128;SHT30;54931;52.098;21.006;2023-09-30T00:51:37;15.94;73.00
68128;SHT30;54931;52.098;21.006;2023-09-30T00:54:05;15.96;72.90
68128;SHT30;54931;52.098;21.006;2023-09-30T00:56:33;16.00;72.83
68128;SHT30;54931;52.098;21.006;2023-09-30T00:59:08;16.02;72.80
68128;SHT30;54931;52.098;21.006;2023-09-30T01:01:35;16.03;72.74
68128;SHT30;54931;52.098;21.006;2023-09-30T01:04:03;16.05;72.68
68128;SHT30;54931;52.098;21.006;2023-09-30T01:06:32;16.07;72.60
68128;SHT30;54931;52.098;21.006;2023-09-30T01:09:00;16.10;72.48
68128;SHT30;54931;52.098;21.006;2023-09-30T01:11:29;16.12;72.44
68128;SHT30;54931;52.098;21.006;2023-09-30T01:13:57;16.14;72.41
68128;SHT30;54931;52.098;21.006;2023-09-30T01:16:25;16.14;72.45
68128;SHT30;54931;52.098;21.006;2023-09-30T01:18:53;16.14;72.49
68128;SHT30;54931;52.098;21.006;2023-09-30T01:21:20;16.14;72.49
68128;SHT30;54931;52.098;21.006;2023-09-30T01:23:50;16.14;72.38
68128;SHT30;54931;52.098;21.006;2023-09-30T01:26:18;16.14;72.31
68128;SHT30;54931;52.098;21.006;2023-09-30T01:28:46;16.15;72.28
68128;SHT30;54931;52.098;21.006;2023-09-30T01:31:15;16.16;72.30
68128;SHT30;54931;52.098;21.006;2023-09-30T01:33:43;16.16;72.30
68128;SHT30;54931;52.098;21.006;2023-09-30T01:36:11;16.15;72.27
68128;SHT30;54931;52.098;21.006;2023-09-30T01:38:38;16.16;72.22
68128;SHT30;54931;52.098;21.006;2023-09-30T01:41:05;16.16;72.17
68128;SHT30;54931;52.098;21.006;2023-09-30T01:43:33;16.16;72.12
68128;SHT30;54931;52.098;21.006;2023-09-30T01:46:02;16.16;72.20
68128;SHT30;54931;52.098;21.006;2023-09-30T01:48:32;16.16;72.17
68128;SHT30;54931;52.098;21.006;2023-09-30T01:51:00;16.15;72.15
68128;SHT30;54931;52.098;21.006;2023-09-30T01:53:28;16.15;72.19
68128;SHT30;54931;52.098;21.006;2023-09-30T01:55:55;16.13;72.20
68128;SHT30;54931;52.098;21.006;2023-09-30T01:58:23;16.13;72.11
68128;SHT30;54931;52.098;21.006;2023-09-30T02:00:52;16.12;72.18
68128;SHT30;54931;52.098;21.006;2023-09-30T02:03:20;16.11;72.20
68128;SHT30;54931;52.098;21.006;2023-09-30T02:05:48;16.10;72.20
68128;SHT30;54931;52.098;21.006;2023-09-30T02:08:15;16.10;72.26
68128;SHT30;54931;52.098;21.006;2023-09-30T02:10:45;16.09;72.29
68128;SHT30;54931;52.098;21.006;2023-09-30T02:13:13;16.08;72.23
68128;SHT30;54931;52.098;21.006;2023-09-30T02:15:40;16.07;72.23
68128;SHT30;54931;52.098;21.006;2023-09-30T02:18:08;16.08;72.27
68128;SHT30;54931;52.098;21.006;2023-09-30T02:20:36;16.06;72.30
68128;SHT30;54931;52.098;21.006;2023-09-30T02:23:10;16.06;72.31
68128;SHT30;54931;52.098;21.006;2023-09-30T02:25:38;16.06;72.29
68128;SHT30;54931;52.098;21.006;2023-09-30T02:28:07;16.05;72.37
68128;SHT30;54931;52.098;21.006;2023-09-30T02:30:34;16.04;72.42
68128;SHT30;54931;52.098;21.006;2023-09-30T02:33:03;16.03;72.43
68128;SHT30;54931;52.098;21.006;2023-09-30T02:35:31;16.03;72.46
68128;SHT30;54931;52.098;21.006;2023-09-30T02:37:59;16.02;72.48
68128;SHT30;54931;52.098;21.006;2023-09-30T02:40:27;16.02;72.49
68128;SHT30;54931;52.098;21.006;2023-09-30T02:42:55;16.01;72.53
68128;SHT30;54931;52.098;21.006;2023-09-30T02:45:22;15.99;72.54
68128;SHT30;54931;52.098;21.006;2023-09-30T02:47:50;15.99;72.50
68128;SHT30;54931;52.098;21.006;2023-09-30T02:50:17;15.98;72.55
68128;SHT30;54931;52.098;21.006;2023-09-30T02:52:45;15.98;72.59
68128;SHT30;54931;52.098;21.006;2023-09-30T02:55:13;15.97;72.61
68128;SHT30;54931;52.098;21.006;2023-09-30T02:57:40;15.95;72.69
68128;SHT30;54931;52.098;21.006;2023-09-30T03:00:09;15.94;72.71
68128;SHT30;54931;52.098;21.006;2023-09-30T03:02:52;15.93;72.71
68128;SHT30;54931;52.098;21.006;2023-09-30T03:05:21;15.91;72.76
68128;SHT30;54931;52.098;21.006;2023-09-30T03:07:50;15.91;72.82
68128;SHT30;54931;52.098;21.006;2023-09-30T03:10:18;15.90;72.83
68128;SHT30;54931;52.098;21.006;2023-09-30T03:12:53;15.90;72.90
68128;SHT30;54931;52.098;21.006;2023-09-30T03:15:21;15.91;72.90
68128;SHT30;54931;52.098;21.006;2023-09-30T03:17:50;15.90;72.97
68128;SHT30;54931;52.098;21.006;2023-09-30T03:20:18;15.89;73.08
68128;SHT30;54931;52.098;21.006;2023-09-30T03:22:47;15.89;73.12
68128;SHT30;54931;52.098;21.006;2023-09-30T03:25:16;15.88;73.20
68128;SHT30;54931;52.098;21.006;2023-09-30T03:27:46;15.88;73.19
68128;SHT30;54931;52.098;21.006;2023-09-30T03:30:15;15.88;73.20
68128;SHT30;54931;52.098;21.006;2023-09-30T03:32:44;15.88;73.20
68128;SHT30;54931;52.098;21.006;2023-09-30T03:35:12;15.88;73.20
68128;SHT30;54931;52.098;21.006;2023-09-30T03:37:44;15.88;73.20
68128;SHT30;54931;52.098;21.006;2023-09-30T03:40:15;15.88;73.28
68128;SHT30;54931;52.098;21.006;2023-09-30T03:42:47;15.88;73.23
68128;SHT30;54931;52.098;21.006;2023-09-30T03:45:18;15.88;73.21
68128;SHT30;54931;52.098;21.006;2023-09-30T03:47:46;15.88;73.22
68128;SHT30;54931;52.098;21.006;2023-09-30T03:50:17;15.90;73.19
68128;SHT30;54931;52.098;21.006;2023-09-30T03:52:44;15.90;73.18
68128;SHT30;54931;52.098;21.006;2023-09-30T03:55:12;15.91;73.20
68128;SHT30;54931;52.098;21.006;2023-09-30T03:57:45;15.90;73.23
68128;SHT30;54931;52.098;21.006;2023-09-30T04:00:15;15.90;73.30
68128;SHT30;54931;52.098;21.006;2023-09-30T04:02:46;15.89;73.30
68128;SHT30;54931;52.098;21.006;2023-09-30T04:05:16;15.88;73.30
68128;SHT30;54931;52.098;21.006;2023-09-30T04:07:43;15.86;73.30
68128;SHT30;54931;52.098;21.006;2023-09-30T04:10:11;15.85;73.40
68128;SHT30;54931;52.098;21.006;2023-09-30T04:12:41;15.83;73.42
68128;SHT30;54931;52.098;21.006;2023-09-30T04:15:08;15.81;73.46
68128;SHT30;54931;52.098;21.006;2023-09-30T04:17:39;15.78;73.60
68128;SHT30;54931;52.098;21.006;2023-09-30T04:20:08;15.76;73.65
68128;SHT30;54931;52.098;21.006;2023-09-30T04:22:38;15.74;73.70
68128;SHT30;54931;52.098;21.006;2023-09-30T04:25:06;15.72;73.75
68128;SHT30;54931;52.098;21.006;2023-09-30T04:27:37;15.72;73.81
68128;SHT30;54931;52.098;21.006;2023-09-30T04:30:07;15.71;73.84
68128;SHT30;54931;52.098;21.006;2023-09-30T04:32:36;15.70;73.89
68128;SHT30;54931;52.098;21.006;2023-09-30T04:35:08;15.71;73.92
68128;SHT30;54931;52.098;21.006;2023-09-30T04:37:37;15.72;73.91
68128;SHT30;54931;52.098;21.006;2023-09-30T04:40:05;15.73;73.88
68128;SHT30;54931;52.098;21.006;2023-09-30T04:42:43;15.75;73.93
68128;SHT30;54931;52.098;21.006;2023-09-30T04:45:11;15.78;73.93
68128;SHT30;54931;52.098;21.006;2023-09-30T04:47:40;15.78;73.92
68128;SHT30;54931;52.098;21.006;2023-09-30T04:50:08;15.80;73.99
68128;SHT30;54931;52.098;21.006;2023-09-30T04:52:36;15.80;74.04
68128;SHT30;54931;52.098;21.006;2023-09-30T04:55:06;15.81;74.01
68128;SHT30;54931;52.098;21.006;2023-09-30T04:57:35;15.81;74.00
68128;SHT30;54931;52.098;21.006;2023-09-30T05:00:03;15.84;74.00
68128;SHT30;54931;52.098;21.006;2023-09-30T05:02:38;15.85;74.00
68128;SHT30;54931;52.098;21.006;2023-09-30T05:05:05;15.88;74.00
68128;SHT30;54931;52.098;21.006;2023-09-30T05:07:34;15.89;73.99
68128;SHT30;54931;52.098;21.006;2023-09-30T05:10:01;15.91;73.92
68128;SHT30;54931;52.098;21.006;2023-09-30T05:12:37;15.93;73.92
68128;SHT30;54931;52.098;21.006;2023-09-30T05:15:06;15.95;73.99
68128;SHT30;54931;52.098;21.006;2023-09-30T05:17:35;15.98;73.96
68128;SHT30;54931;52.098;21.006;2023-09-30T05:20:03;16.00;74.03
68128;SHT30;54931;52.098;21.006;2023-09-30T05:22:34;16.02;74.00
68128;SHT30;54931;52.098;21.006;2023-09-30T05:25:01;16.05;74.02
68128;SHT30;54931;52.098;21.006;2023-09-30T05:27:29;16.07;74.01
68128;SHT30;54931;52.098;21.006;2023-09-30T05:29:57;16.07;73.99
68128;SHT30;54931;52.098;21.006;2023-09-30T05:32:25;16.11;73.90
68128;SHT30;54931;52.098;21.006;2023-09-30T05:34:53;16.13;73.81
68128;SHT30;54931;52.098;21.006;2023-09-30T05:37:21;16.16;73.81
68128;SHT30;54931;52.098;21.006;2023-09-30T05:39:48;16.17;73.79
68128;SHT30;54931;52.098;21.006;2023-09-30T05:42:16;16.20;73.75
68128;SHT30;54931;52.098;21.006;2023-09-30T05:44:45;16.22;73.80
68128;SHT30;54931;52.098;21.006;2023-09-30T05:47:13;16.23;73.91
68128;SHT30;54931;52.098;21.006;2023-09-30T05:49:40;16.25;73.93
68128;SHT30;54931;52.098;21.006;2023-09-30T05:52:08;16.26;74.17
68128;SHT30;54931;52.098;21.006;2023-09-30T05:54:36;16.25;74.50
68128;SHT30;54931;52.098;21.006;2023-09-30T05:57:04;16.26;74.79
68128;SHT30;54931;52.098;21.006;2023-09-30T05:59:31;16.26;74.99
68128;SHT30;54931;52.098;21.006;2023-09-30T06:02:00;16.27;75.22
68128;SHT30;54931;52.098;21.006;2023-09-30T06:04:27;16.27;75.49
68128;SHT30;54931;52.098;21.006;2023-09-30T06:06:56;16.27;75.63
68128;SHT30;54931;52.098;21.006;2023-09-30T06:09:23;16.27;75.83
68128;SHT30;54931;52.098;21.006;2023-09-30T06:11:52;16.27;76.01
68128;SHT30;54931;52.098;21.006;2023-09-30T06:14:19;16.28;76.19
68128;SHT30;54931;52.098;21.006;2023-09-30T06:16:47;16.29;76.37
68128;SHT30;54931;52.098;21.006;2023-09-30T06:19:15;16.30;76.46
68128;SHT30;54931;52.098;21.006;2023-09-30T06:21:42;16.32;76.60
68128;SHT30;54931;52.098;21.006;2023-09-30T06:24:10;16.34;76.75
68128;SHT30;54931;52.098;21.006;2023-09-30T06:26:38;16.37;76.94
68128;SHT30;54931;52.098;21.006;2023-09-30T06:29:06;16.40;77.05
68128;SHT30;54931;52.098;21.006;2023-09-30T06:31:34;16.44;77.14
68128;SHT30;54931;52.098;21.006;2023-09-30T06:34:01;16.49;77.29
68128;SHT30;54931;52.098;21.006;2023-09-30T06:36:30;16.53;77.47
68128;SHT30;54931;52.098;21.006;2023-09-30T06:39:00;16.58;77.63
68128;SHT30;54931;52.098;21.006;2023-09-30T06:41:32;16.62;77.77
68128;SHT30;54931;52.098;21.006;2023-09-30T06:44:00;16.66;77.91
68128;SHT30;54931;52.098;21.006;2023-09-30T06:46:28;16.69;78.01
68128;SHT30;54931;52.098;21.006;2023-09-30T06:48:56;16.73;78.22
68128;SHT30;54931;52.098;21.006;2023-09-30T06:51:23;16.76;78.33
68128;SHT30;54931;52.098;21.006;2023-09-30T06:53:53;16.80;78.54
68128;SHT30;54931;52.098;21.006;2023-09-30T06:56:21;16.84;78.79
68128;SHT30;54931;52.098;21.006;2023-09-30T06:58:48;16.88;78.99
68128;SHT30;54931;52.098;21.006;2023-09-30T07:01:16;16.91;79.16
68128;SHT30;54931;52.098;21.006;2023-09-30T07:03:44;16.95;79.28
68128;SHT30;54931;52.098;21.006;2023-09-30T07:06:12;16.98;79.42
68128;SHT30;54931;52.098;21.006;2023-09-30T07:08:48;17.02;79.64
68128;SHT30;54931;52.098;21.006;2023-09-30T07:11:16;17.05;79.72
68128;SHT30;54931;52.098;21.006;2023-09-30T07:13:43;17.07;79.73
68128;SHT30;54931;52.098;21.006;2023-09-30T07:16:11;17.11;79.85
68128;SHT30;54931;52.098;21.006;2023-09-30T07:18:38;17.14;79.92
68128;SHT30;54931;52.098;21.006;2023-09-30T07:21:06;17.17;80.00
68128;SHT30;54931;52.098;21.006;2023-09-30T07:23:34;17.21;80.06
68128;SHT30;54931;52.098;21.006;2023-09-30T07:26:02;17.25;80.18
68128;SHT30;54931;52.098;21.006;2023-09-30T07:28:30;17.28;80.19
68128;SHT30;54931;52.098;21.006;2023-09-30T07:30:58;17.30;80.16
68128;SHT30;54931;52.098;21.006;2023-09-30T07:33:26;17.34;80.17
68128;SHT30;54931;52.098;21.006;2023-09-30T07:35:53;17.35;80.20
68128;SHT30;54931;52.098;21.006;2023-09-30T07:38:22;17.39;80.34
68128;SHT30;54931;52.098;21.006;2023-09-30T07:40:50;17.41;80.33
68128;SHT30;54931;52.098;21.006;2023-09-30T07:43:17;17.42;80.24
68128;SHT30;54931;52.098;21.006;2023-09-30T07:45:47;17.45;80.30
68128;SHT30;54931;52.098;21.006;2023-09-30T07:48:15;17.48;80.22
68128;SHT30;54931;52.098;21.006;2023-09-30T07:50:42;17.51;80.36
68128;SHT30;54931;52.098;21.006;2023-09-30T07:53:10;17.58;80.51
68128;SHT30;54931;52.098;21.006;2023-09-30T07:55:39;17.64;80.46
68128;SHT30;54931;52.098;21.006;2023-09-30T07:58:07;17.71;80.38
68128;SHT30;54931;52.098;21.006;2023-09-30T08:00:35;17.82;80.45
68128;SHT30;54931;52.098;21.006;2023-09-30T08:03:03;17.96;80.72
68128;SHT30;54931;52.098;21.006;2023-09-30T08:05:31;18.10;80.75
68128;SHT30;54931;52.098;21.006;2023-09-30T08:08:01;18.25;80.71
68128;SHT30;54931;52.098;21.006;2023-09-30T08:10:31;18.36;80.07
68128;SHT30;54931;52.098;21.006;2023-09-30T08:12:59;18.42;79.76
68128;SHT30;54931;52.098;21.006;2023-09-30T08:15:30;18.46;79.61
68128;SHT30;54931;52.098;21.006;2023-09-30T08:18:05;18.46;79.34
68128;SHT30;54931;52.098;21.006;2023-09-30T08:20:35;18.44;79.22
68128;SHT30;54931;52.098;21.006;2023-09-30T08:23:04;18.42;79.19
68128;SHT30;54931;52.098;21.006;2023-09-30T08:25:32;18.39;79.04
68128;SHT30;54931;52.098;21.006;2023-09-30T08:28:03;18.37;78.97
68128;SHT30;54931;52.098;21.006;2023-09-30T08:30:35;18.35;79.04
68128;SHT30;54931;52.098;21.006;2023-09-30T08:33:05;18.36;79.17
68128;SHT30;54931;52.098;21.006;2023-09-30T08:35:37;18.36;79.11
68128;SHT30;54931;52.098;21.006;2023-09-30T08:38:05;18.33;79.12
68128;SHT30;54931;52.098;21.006;2023-09-30T08:40:33;18.29;79.08
68128;SHT30;54931;52.098;21.006;2023-09-30T08:43:01;18.26;79.10
68128;SHT30;54931;52.098;21.006;2023-09-30T08:45:32;18.23;79.20
68128;SHT30;54931;52.098;21.006;2023-09-30T08:48:07;18.21;79.33
68128;SHT30;54931;52.098;21.006;2023-09-30T08:50:35;18.22;79.32
68128;SHT30;54931;52.098;21.006;2023-09-30T08:53:09;18.22;79.46
68128;SHT30;54931;52.098;21.006;2023-09-30T08:55:38;18.23;79.49
68128;SHT30;54931;52.098;21.006;2023-09-30T08:58:08;18.25;79.52
68128;SHT30;54931;52.098;21.006;2023-09-30T09:00:39;18.25;79.55
68128;SHT30;54931;52.098;21.006;2023-09-30T09:03:07;18.25;79.57
68128;SHT30;54931;52.098;21.006;2023-09-30T09:05:35;18.25;79.61
68128;SHT30;54931;52.098;21.006;2023-09-30T09:08:03;18.24;79.65
68128;SHT30;54931;52.098;21.006;2023-09-30T09:10:32;18.24;79.75
68128;SHT30;54931;52.098;21.006;2023-09-30T09:13:00;18.23;79.75
68128;SHT30;54931;52.098;21.006;2023-09-30T09:15:28;18.24;79.89
68128;SHT30;54931;52.098;21.006;2023-09-30T09:17:56;18.25;79.84
68128;SHT30;54931;52.098;21.006;2023-09-30T09:20:24;18.25;79.94
68128;SHT30;54931;52.098;21.006;2023-09-30T09:22:53;18.25;80.02
68128;SHT30;54931;52.098;21.006;2023-09-30T09:25:23;18.25;80.06
68128;SHT30;54931;52.098;21.006;2023-09-30T09:27:51;18.24;80.11
68128;SHT30;54931;52.098;21.006;2023-09-30T09:30:24;18.22;80.24
68128;SHT30;54931;52.098;21.006;2023-09-30T09:32:54;18.17;80.45
68128;SHT30;54931;52.098;21.006;2023-09-30T09:35:33;18.12;80.66
68128;SHT30;54931;52.098;21.006;2023-09-30T09:38:04;18.08;81.23
68128;SHT30;54931;52.098;21.006;2023-09-30T09:40:34;18.02;81.38
68128;SHT30;54931;52.098;21.006;2023-09-30T09:43:07;17.98;81.56
68128;SHT30;54931;52.098;21.006;2023-09-30T09:45:35;17.95;81.94
68128;SHT30;54931;52.098;21.006;2023-09-30T09:48:08;17.92;81.94
68128;SHT30;54931;52.098;21.006;2023-09-30T09:50:36;17.90;82.19
68128;SHT30;54931;52.098;21.006;2023-09-30T09:53:05;17.87;82.33
68128;SHT30;54931;52.098;21.006;2023-09-30T09:55:33;17.83;82.55
68128;SHT30;54931;52.098;21.006;2023-09-30T09:58:05;17.80;82.76
68128;SHT30;54931;52.098;21.006;2023-09-30T10:00:37;17.76;82.91
68128;SHT30;54931;52.098;21.006;2023-09-30T10:03:06;17.71;83.18
68128;SHT30;54931;52.098;21.006;2023-09-30T10:05:34;17.68;84.00
68128;SHT30;54931;52.098;21.006;2023-09-30T10:08:07;17.63;84.05
68128;SHT30;54931;52.098;21.006;2023-09-30T10:10:43;17.60;84.47
68128;SHT30;54931;52.098;21.006;2023-09-30T10:19:10;17.70;84.75
68128;SHT30;54931;52.098;21.006;2023-09-30T10:21:39;17.71;84.73
68128;SHT30;54931;52.098;21.006;2023-09-30T10:24:47;17.70;84.72
68128;SHT30;54931;52.098;21.006;2023-09-30T10:40:49;17.25;84.63
68128;SHT30;54931;52.098;21.006;2023-09-30T10:43:33;17.18;84.71
68128;SHT30;54931;52.098;21.006;2023-09-30T10:46:03;17.12;84.67
68128;SHT30;54931;52.098;21.006;2023-09-30T10:48:50;17.08;84.76
68128;SHT30;54931;52.098;21.006;2023-09-30T10:51:20;17.06;84.65
68128;SHT30;54931;52.098;21.006;2023-09-30T10:53:50;17.08;84.69
68128;SHT30;54931;52.098;21.006;2023-09-30T10:56:33;17.14;84.65
68128;SHT30;54931;52.098;21.006;2023-09-30T10:59:01;17.15;84.65
68128;SHT30;54931;52.098;21.006;2023-09-30T11:01:33;17.14;84.70
68128;SHT30;54931;52.098;21.006;2023-09-30T11:04:02;17.10;84.40
68128;SHT30;54931;52.098;21.006;2023-09-30T11:06:32;17.06;84.21
68128;SHT30;54931;52.098;21.006;2023-09-30T11:09:00;17.00;84.15
68128;SHT30;54931;52.098;21.006;2023-09-30T11:14:16;16.92;84.14
68128;SHT30;54931;52.098;21.006;2023-09-30T11:16:47;16.83;84.11
68128;SHT30;54931;52.098;21.006;2023-09-30T11:19:17;16.76;83.75
68128;SHT30;54931;52.098;21.006;2023-09-30T11:21:49;16.70;83.39
68128;SHT30;54931;52.098;21.006;2023-09-30T11:24:19;16.70;83.32
68128;SHT30;54931;52.098;21.006;2023-09-30T11:26:47;16.76;83.45
68128;SHT30;54931;52.098;21.006;2023-09-30T11:29:21;16.86;83.13
68128;SHT30;54931;52.098;21.006;2023-09-30T11:31:49;16.95;82.46
68128;SHT30;54931;52.098;21.006;2023-09-30T11:34:18;17.05;81.79
68128;SHT30;54931;52.098;21.006;2023-09-30T11:36:50;17.15;81.24
68128;SHT30;54931;52.098;21.006;2023-09-30T11:39:23;17.25;81.19
68128;SHT30;54931;52.098;21.006;2023-09-30T11:41:53;17.31;80.62
68128;SHT30;54931;52.098;21.006;2023-09-30T11:44:24;17.38;80.62
68128;SHT30;54931;52.098;21.006;2023-09-30T11:47:01;17.38;79.99
68128;SHT30;54931;52.098;21.006;2023-09-30T11:49:34;17.35;79.70
68128;SHT30;54931;52.098;21.006;2023-09-30T11:52:12;17.35;79.76
68128;SHT30;54931;52.098;21.006;2023-09-30T11:54:43;17.38;79.73
68128;SHT30;54931;52.098;21.006;2023-09-30T11:57:16;17.38;79.57
68128;SHT30;54931;52.098;21.006;2023-09-30T11:59:45;17.39;79.29
68128;SHT30;54931;52.098;21.006;2023-09-30T12:02:16;17.43;79.33
68128;SHT30;54931;52.098;21.006;2023-09-30T12:04:45;17.55;79.37
68128;SHT30;54931;52.098;21.006;2023-09-30T12:07:16;17.72;78.73
68128;SHT30;54931;52.098;21.006;2023-09-30T12:09:44;17.88;78.56
68128;SHT30;54931;52.098;21.006;2023-09-30T12:12:11;18.09;78.25
68128;SHT30;54931;52.098;21.006;2023-09-30T12:14:41;18.33;77.82
68128;SHT30;54931;52.098;21.006;2023-09-30T12:17:09;18.55;77.00
68128;SHT30;54931;52.098;21.006;2023-09-30T12:19:41;18.73;75.38
68128;SHT30;54931;52.098;21.006;2023-09-30T12:22:09;18.95;74.75
68128;SHT30;54931;52.098;21.006;2023-09-30T12:24:38;19.11;73.33
68128;SHT30;54931;52.098;21.006;2023-09-30T12:27:06;19.25;73.30
68128;SHT30;54931;52.098;21.006;2023-09-30T12:29:34;19.47;72.86
68128;SHT30;54931;52.098;21.006;2023-09-30T12:32:05;19.66;72.59
68128;SHT30;54931;52.098;21.006;2023-09-30T12:34:32;19.84;71.75
68128;SHT30;54931;52.098;21.006;2023-09-30T12:37:00;19.95;70.79
68128;SHT30;54931;52.098;21.006;2023-09-30T12:39:28;19.99;70.19
68128;SHT30;54931;52.098;21.006;2023-09-30T12:42:00;19.98;68.89
68128;SHT30;54931;52.098;21.006;2023-09-30T12:44:27;19.86;67.63
68128;SHT30;54931;52.098;21.006;2023-09-30T12:46:55;19.83;67.80
68128;SHT30;54931;52.098;21.006;2023-09-30T12:49:23;19.83;67.08
68128;SHT30;54931;52.098;21.006;2023-09-30T12:51:50;19.80;67.13
68128;SHT30;54931;52.098;21.006;2023-09-30T12:54:18;19.89;67.27
68128;SHT30;54931;52.098;21.006;2023-09-30T12:56:45;19.97;66.14
68128;SHT30;54931;52.098;21.006;2023-09-30T12:59:14;20.00;66.58
68128;SHT30;54931;52.098;21.006;2023-09-30T13:01:42;20.15;66.24
68128;SHT30;54931;52.098;21.006;2023-09-30T13:04:10;20.28;65.70
68128;SHT30;54931;52.098;21.006;2023-09-30T13:06:38;20.42;66.10
68128;SHT30;54931;52.098;21.006;2023-09-30T13:09:05;20.60;64.93
68128;SHT30;54931;52.098;21.006;2023-09-30T13:11:35;20.78;65.66
68128;SHT30;54931;52.098;21.006;2023-09-30T13:14:02;21.04;64.75
68128;SHT30;54931;52.098;21.006;2023-09-30T13:16:30;21.17;63.89
68128;SHT30;54931;52.098;21.006;2023-09-30T13:18:58;21.25;63.30
68128;SHT30;54931;52.098;21.006;2023-09-30T13:21:26;21.25;60.61
68128;SHT30;54931;52.098;21.006;2023-09-30T13:23:53;21.13;58.49
68128;SHT30;54931;52.098;21.006;2023-09-30T13:26:21;21.04;58.61
68128;SHT30;54931;52.098;21.006;2023-09-30T13:28:48;21.00;58.34
68128;SHT30;54931;52.098;21.006;2023-09-30T13:31:16;20.89;56.47
68128;SHT30;54931;52.098;21.006;2023-09-30T13:33:44;20.79;56.07
68128;SHT30;54931;52.098;21.006;2023-09-30T13:36:11;20.70;55.90
68128;SHT30;54931;52.098;21.006;2023-09-30T13:38:38;20.61;54.52
68128;SHT30;54931;52.098;21.006;2023-09-30T13:41:06;20.57;53.50
68128;SHT30;54931;52.098;21.006;2023-09-30T13:43:33;20.55;53.78
68128;SHT30;54931;52.098;21.006;2023-09-30T13:46:04;20.56;54.14
68128;SHT30;54931;52.098;21.006;2023-09-30T13:48:33;20.52;53.71
68128;SHT30;54931;52.098;21.006;2023-09-30T13:51:19;20.45;54.10
68128;SHT30;54931;52.098;21.006;2023-09-30T13:53:47;20.40;54.67
68128;SHT30;54931;52.098;21.006;2023-09-30T13:56:15;20.38;55.23
68128;SHT30;54931;52.098;21.006;2023-09-30T13:58:42;20.32;55.23
68128;SHT30;54931;52.098;21.006;2023-09-30T14:01:12;20.17;53.69
68128;SHT30;54931;52.098;21.006;2023-09-30T14:03:41;19.99;54.76
68128;SHT30;54931;52.098;21.006;2023-09-30T14:06:09;19.81;54.56
68128;SHT30;54931;52.098;21.006;2023-09-30T14:08:40;19.65;54.69
68128;SHT30;54931;52.098;21.006;2023-09-30T14:11:11;19.47;54.90
68128;SHT30;54931;52.098;21.006;2023-09-30T14:13:39;19.29;55.03
68128;SHT30;54931;52.098;21.006;2023-09-30T14:16:07;19.15;55.22
68128;SHT30;54931;52.098;21.006;2023-09-30T14:18:35;19.04;55.25
68128;SHT30;54931;52.098;21.006;2023-09-30T14:21:03;18.98;55.94
68128;SHT30;54931;52.098;21.006;2023-09-30T14:23:30;18.92;56.00
68128;SHT30;54931;52.098;21.006;2023-09-30T14:25:58;18.89;55.82
68128;SHT30;54931;52.098;21.006;2023-09-30T14:28:34;18.88;55.48
68128;SHT30;54931;52.098;21.006;2023-09-30T14:31:02;18.90;55.70
68128;SHT30;54931;52.098;21.006;2023-09-30T14:33:31;18.92;55.09
68128;SHT30;54931;52.098;21.006;2023-09-30T14:35:59;18.94;54.92
68128;SHT30;54931;52.098;21.006;2023-09-30T14:38:26;18.96;54.79
68128;SHT30;54931;52.098;21.006;2023-09-30T14:40:54;18.96;55.23
68128;SHT30;54931;52.098;21.006;2023-09-30T14:43:22;18.96;55.41
68128;SHT30;54931;52.098;21.006;2023-09-30T14:45:49;19.01;55.85
68128;SHT30;54931;52.098;21.006;2023-09-30T14:48:17;19.12;56.26
68128;SHT30;54931;52.098;21.006;2023-09-30T14:50:51;19.16;55.66
68128;SHT30;54931;52.098;21.006;2023-09-30T14:53:18;19.21;55.82
68128;SHT30;54931;52.098;21.006;2023-09-30T14:55:46;19.24;55.30
68128;SHT30;54931;52.098;21.006;2023-09-30T14:58:14;19.25;54.25
68128;SHT30;54931;52.098;21.006;2023-09-30T15:00:43;19.23;54.21
68128;SHT30;54931;52.098;21.006;2023-09-30T15:03:11;19.20;53.46
68128;SHT30;54931;52.098;21.006;2023-09-30T15:05:40;19.18;54.28
68128;SHT30;54931;52.098;21.006;2023-09-30T15:08:07;19.13;54.28
68128;SHT30;54931;52.098;21.006;2023-09-30T15:10:36;19.05;54.45
68128;SHT30;54931;52.098;21.006;2023-09-30T15:13:03;18.96;53.18
68128;SHT30;54931;52.098;21.006;2023-09-30T15:15:35;18.89;54.23
68128;SHT30;54931;52.098;21.006;2023-09-30T15:18:04;18.77;54.60
68128;SHT30;54931;52.098;21.006;2023-09-30T15:20:37;18.66;53.65
68128;SHT30;54931;52.098;21.006;2023-09-30T15:23:12;18.58;54.30
68128;SHT30;54931;52.098;21.006;2023-09-30T15:25:41;18.49;54.77
68128;SHT30;54931;52.098;21.006;2023-09-30T15:28:10;18.40;55.09
68128;SHT30;54931;52.098;21.006;2023-09-30T15:30:40;18.32;55.14
68128;SHT30;54931;52.098;21.006;2023-09-30T15:33:08;18.29;55.64
68128;SHT30;54931;52.098;21.006;2023-09-30T15:35:35;18.23;55.63
68128;SHT30;54931;52.098;21.006;2023-09-30T15:38:04;18.18;56.16
68128;SHT30;54931;52.098;21.006;2023-09-30T15:40:33;18.11;55.78
68128;SHT30;54931;52.098;21.006;2023-09-30T15:43:24;18.03;55.86
68128;SHT30;54931;52.098;21.006;2023-09-30T15:45:52;17.97;56.45
68128;SHT30;54931;52.098;21.006;2023-09-30T15:48:22;17.87;56.54
68128;SHT30;54931;52.098;21.006;2023-09-30T15:50:50;17.78;56.49